createdAt,value
2023-03-23T16:02:37.395Z,17.20
2023-03-23T16:08:56.569Z,17.10
2023-03-23T16:15:15.719Z,16.80
2023-03-23T16:21:10.162Z,16.60
2023-03-23T16:27:04.974Z,16.50
2023-03-23T16:33:35.666Z,16.50
2023-03-23T16:39:54.107Z,16.30
2023-03-23T16:45:49.257Z,15.90
2023-03-23T16:51:44.129Z,15.40
2023-03-23T17:04:23.981Z,15.00
2023-03-23T17:10:18.522Z,14.80
2023-03-23T17:16:13.057Z,14.80
2023-03-23T17:22:31.588Z,14.80
2023-03-23T17:28:50.018Z,14.80
2023-03-23T17:34:44.653Z,14.70
2023-03-23T17:40:39.269Z,14.60
2023-03-23T17:46:57.936Z,14.60
2023-03-23T17:53:18.505Z,14.30
2023-03-23T17:59:12.922Z,14.20
2023-03-23T18:05:09.339Z,14.00
2023-03-23T18:11:27.936Z,13.90
2023-03-23T18:17:48.220Z,13.90
2023-03-23T18:23:52.889Z,13.80
2023-03-23T18:29:51.332Z,13.70
2023-03-23T18:36:24.124Z,13.70
2023-03-23T18:42:42.507Z,13.70
2023-03-23T18:48:37.673Z,13.50
2023-03-23T18:54:35.164Z,13.40
2023-03-23T19:00:56.709Z,13.40
2023-03-23T19:07:15.652Z,13.40
2023-03-23T19:13:10.480Z,13.30
2023-03-23T19:19:06.146Z,13.20
2023-03-23T19:25:26.553Z,13.20
2023-03-23T19:31:46.420Z,13.20
2023-03-23T19:37:41.310Z,13.10
2023-03-23T19:43:37.593Z,13.00
2023-03-23T19:49:56.729Z,13.00
2023-03-23T19:56:18.785Z,13.10
2023-03-23T20:02:13.373Z,13.00
2023-03-23T20:08:09.900Z,12.90
2023-03-23T20:14:28.380Z,12.90
2023-03-23T20:20:50.097Z,12.90
2023-03-23T20:26:47.575Z,12.90
2023-03-23T20:32:42.282Z,12.90
2023-03-23T20:39:15.241Z,12.90
2023-03-23T20:45:33.735Z,13.00
2023-03-23T20:51:28.127Z,12.90
2023-03-23T20:57:22.806Z,12.80
2023-03-23T21:03:41.564Z,12.90
2023-03-23T21:09:59.973Z,12.80
2023-03-23T21:15:54.379Z,12.70
2023-03-23T21:21:55.812Z,12.70
2023-03-23T21:28:17.351Z,12.70
2023-03-23T21:34:36.122Z,12.60
2023-03-23T21:40:30.611Z,12.50
2023-03-23T21:46:25.065Z,12.50
2023-03-23T21:52:43.574Z,12.50
2023-03-23T21:59:03.585Z,12.70
2023-03-23T22:04:57.989Z,12.70
2023-03-23T22:11:01.137Z,12.80
2023-03-23T22:17:20.429Z,12.80
2023-03-23T22:23:39.125Z,12.90
2023-03-23T22:29:33.524Z,12.80
2023-03-23T22:35:28.306Z,12.80
2023-03-23T22:41:58.813Z,12.80
2023-03-23T22:48:17.750Z,12.80
2023-03-23T22:54:12.216Z,12.70
2023-03-23T23:00:14.879Z,12.70
2023-03-23T23:06:33.975Z,12.70
2023-03-23T23:12:54.094Z,12.80
2023-03-23T23:18:48.685Z,12.80
2023-03-23T23:24:43.639Z,12.80
2023-03-23T23:31:02.324Z,12.90
2023-03-23T23:37:20.769Z,13.00
2023-03-23T23:43:15.746Z,13.10
2023-03-23T23:49:10.368Z,13.10
2023-03-23T23:55:28.957Z,13.20
